Time;durP1;ratioP1;P1;durP2;ratioP2;P2;SDS_P1;SDS_P2;PMS_P1;PMS_P2;Temp;Humidity;BMP_temperature;BMP_pressure;BME280_temperature;BME280_humidity;BME280_pressure;Samples;Min_cycle;Max_cycle;Signal;HPM_P1;HPM_P2
2022/07/24 00:00:04;;;;;;;24.60;18.83;;;;;;;16.88;86.44;101816.13;5003982;28;20480;-68
2022/07/24 00:02:29;;;;;;;;;;;;;;;17.07;84.45;101819.50;5005252;28;20077;-68
2022/07/24 00:04:56;;;;;;;24.40;20.13;;;;;;;16.97;85.69;101814.63;5004733;28;19952;-68
2022/07/24 00:07:22;;;;;;;25.08;20.95;;;;;;;16.95;86.41;101816.81;5002129;28;20038;-68
2022/07/24 00:09:47;;;;;;;26.38;21.10;;;;;;;16.96;86.11;101812.94;5005494;28;20029;-68
2022/07/24 00:12:12;;;;;;;25.70;20.85;;;;;;;16.95;86.39;101815.97;5004736;28;20076;-68
2022/07/24 00:14:37;;;;;;;27.58;21.50;;;;;;;16.93;86.27;101813.47;5003642;28;20036;-68
2022/07/24 00:17:03;;;;;;;27.55;21.23;;;;;;;16.92;86.18;101825.63;5003436;28;20030;-68
2022/07/24 00:19:28;;;;;;;27.45;21.48;;;;;;;16.91;85.96;101814.78;5004262;28;20444;-68
2022/07/24 00:21:53;;;;;;;25.10;21.02;;;;;;;16.88;86.43;101807.81;5004445;28;20037;-68
2022/07/24 00:24:18;;;;;;;25.23;19.98;;;;;;;16.88;86.92;101799.50;5005013;28;20022;-68
2022/07/24 00:26:44;;;;;;;25.42;21.02;;;;;;;16.84;87.40;101803.84;5003539;28;20042;-68
2022/07/24 00:29:09;;;;;;;17.77;14.13;;;;;;;16.81;87.56;101809.88;5002932;28;20424;-68
2022/07/24 00:31:34;;;;;;;18.70;13.82;;;;;;;16.74;87.85;101810.06;5005028;28;20038;-68
2022/07/24 00:34:00;;;;;;;19.83;13.77;;;;;;;16.66;87.75;101804.00;5003895;28;20068;-68
2022/07/24 00:36:25;;;;;;;15.88;12.30;;;;;;;16.58;87.78;101806.09;5004542;28;20034;-69
2022/07/24 00:38:50;;;;;;;18.55;13.43;;;;;;;16.60;88.54;101812.25;5001884;28;20040;-68
2022/07/24 00:41:16;;;;;;;19.92;15.52;;;;;;;16.54;88.66;101820.72;5004074;28;20029;-69
2022/07/24 00:44:01;;;;;;;24.42;20.85;;;;;;;16.59;88.11;101820.81;5002449;28;20033;-68
2022/07/24 00:46:27;;;;;;;28.27;22.15;;;;;;;16.51;88.59;101813.72;5001653;28;20038;-68
2022/07/24 00:48:53;;;;;;;25.42;20.90;;;;;;;16.48;88.22;101811.47;5005119;28;20029;-69
2022/07/24 00:51:18;;;;;;;26.80;23.27;;;;;;;16.50;88.23;101814.81;5007610;28;20053;-68
2022/07/24 00:53:43;;;;;;;29.63;23.77;;;;;;;16.52;88.54;101807.06;5006310;28;20029;-68
2022/07/24 00:56:09;;;;;;;28.55;24.10;;;;;;;16.46;88.40;101808.06;5007360;28;20469;-68
2022/07/24 00:58:34;;;;;;;26.50;23.35;;;;;;;16.44;88.35;101813.03;5005826;28;20641;-68
2022/07/24 01:00:59;;;;;;;23.30;18.48;;;;;;;16.44;89.30;101806.66;5007707;28;20461;-68
2022/07/24 01:03:24;;;;;;;21.58;16.85;;;;;;;16.36;89.47;101813.41;5007544;28;20119;-68
2022/07/24 01:05:50;;;;;;;22.90;16.77;;;;;;;16.34;89.27;101804.50;5007768;28;20048;-68
2022/07/24 01:08:15;;;;;;;24.90;18.30;;;;;;;16.28;89.33;101808.25;5007424;22;20575;-68
2022/07/24 01:10:41;;;;;;;21.65;18.08;;;;;;;16.21;89.39;101804.78;4986588;28;20022;-68
2022/07/24 01:13:06;;;;;;;24.00;17.30;;;;;;;16.20;89.77;101798.38;4986295;28;20037;-68
2022/07/24 01:15:32;;;;;;;23.80;18.65;;;;;;;16.17;89.71;101798.91;4989610;28;20531;-68
2022/07/24 01:17:57;;;;;;;25.15;19.90;;;;;;;16.14;89.49;101804.06;5004383;28;20040;-68
2022/07/24 01:20:22;;;;;;;24.38;19.00;;;;;;;16.13;89.94;101797.69;5005019;28;20030;-68
2022/07/24 01:22:48;;;;;;;23.58;18.42;;;;;;;16.13;90.70;101791.31;4991949;28;20396;-68
2022/07/24 01:25:14;;;;;;;22.52;18.95;;;;;;;16.06;90.53;101792.25;5000782;28;20030;-68
2022/07/24 01:27:39;;;;;;;24.65;20.02;;;;;;;16.06;90.33;101797.81;4991529;28;20030;-68
2022/07/24 01:30:05;;;;;;;26.70;21.23;;;;;;;16.04;90.19;101788.06;5003572;28;20111;-68
2022/07/24 01:32:31;;;;;;;27.23;22.50;;;;;;;16.06;89.92;101786.72;5006529;28;20014;-68
2022/07/24 01:34:56;;;;;;;27.92;21.95;;;;;;;16.03;90.48;101780.84;5001741;28;20432;-68
2022/07/24 01:37:21;;;;;;;26.48;22.63;;;;;;;16.03;90.36;101781.69;5006587;28;20046;-68
2022/07/24 01:39:46;;;;;;;25.15;21.40;;;;;;;16.00;90.82;101779.41;5006933;28;20029;-68
2022/07/24 01:42:12;;;;;;;27.38;22.08;;;;;;;16.00;90.84;101776.63;4988233;28;20545;-68
2022/07/24 01:44:37;;;;;;;25.23;21.25;;;;;;;15.99;90.87;101774.94;4990747;28;20026;-68
2022/07/24 01:47:02;;;;;;;27.48;22.83;;;;;;;16.01;90.18;101786.63;5005542;28;20121;-68
2022/07/24 01:49:28;;;;;;;27.60;23.30;;;;;;;16.11;89.21;101790.69;5004947;28;20037;-68
2022/07/24 01:51:53;;;;;;;27.77;22.30;;;;;;;16.09;89.21;101786.25;4995279;28;20053;-68
2022/07/24 01:54:18;;;;;;;25.85;21.90;;;;;;;16.15;88.24;101783.59;4995943;28;20535;-68
2022/07/24 01:56:44;;;;;;;26.67;21.60;;;;;;;16.17;89.58;101775.84;4987097;28;20109;-68
2022/07/24 01:59:09;;;;;;;27.92;22.58;;;;;;;16.22;89.69;101784.28;4985012;28;20737;-68
2022/07/24 02:01:35;;;;;;;27.02;21.15;;;;;;;16.27;88.72;101776.94;4996527;28;20034;-68
2022/07/24 02:04:00;;;;;;;27.92;22.30;;;;;;;16.27;87.97;101764.97;5005697;28;20588;-67
2022/07/24 02:06:25;;;;;;;26.48;23.05;;;;;;;16.29;88.89;101768.34;5006275;28;20388;-68
2022/07/24 02:08:51;;;;;;;25.83;20.90;;;;;;;16.33;88.17;101769.56;5005231;28;20034;-68
2022/07/24 02:11:18;;;;;;;24.73;21.83;;;;;;;16.32;87.53;101776.16;5005563;28;20037;-68
2022/07/24 02:13:43;;;;;;;28.15;21.73;;;;;;;16.33;87.36;101777.88;5004915;28;20031;-68
2022/07/24 02:16:08;;;;;;;28.42;22.13;;;;;;;16.35;87.55;101781.22;5005044;28;20034;-68
2022/07/24 02:18:34;;;;;;;25.55;20.35;;;;;;;16.38;87.49;101777.13;5006022;28;20129;-68
2022/07/24 02:20:59;;;;;;;27.50;22.15;;;;;;;16.37;87.83;101792.06;4991206;28;20507;-68
2022/07/24 02:23:24;;;;;;;27.10;21.38;;;;;;;16.28;88.69;101791.63;4986103;28;20117;-68
2022/07/24 02:25:50;;;;;;;25.13;20.88;;;;;;;16.18;89.60;101783.94;4986392;28;20031;-68
2022/07/24 02:28:16;;;;;;;28.25;21.38;;;;;;;16.07;88.92;101787.59;4985680;28;20140;-68
2022/07/24 02:30:42;;;;;;;25.48;20.50;;;;;;;15.93;89.18;101784.25;4986191;28;20058;-68
2022/07/24 02:33:07;;;;;;;25.95;22.13;;;;;;;15.86;89.92;101775.19;4985736;28;20030;-68
2022/07/24 02:35:33;;;;;;;28.73;22.05;;;;;;;15.83;90.50;101781.25;5001002;28;20092;-68
2022/07/24 02:37:58;;;;;;;29.35;20.83;;;;;;;15.73;90.80;101781.00;5005300;28;20068;-68
2022/07/24 02:40:23;;;;;;;26.17;19.75;;;;;;;15.72;90.74;101779.34;5004435;28;20036;-68
2022/07/24 02:42:49;;;;;;;28.42;21.50;;;;;;;15.69;90.62;101779.81;5004277;28;20040;-68
2022/07/24 02:45:14;;;;;;;26.25;20.88;;;;;;;15.69;91.07;101780.66;5004417;28;20029;-68
2022/07/24 02:47:48;;;;;;;25.60;20.05;;;;;;;15.64;90.89;101780.53;5005199;28;20720;-68
2022/07/24 02:50:13;;;;;;;25.52;20.30;;;;;;;15.60;91.65;101784.00;4997132;28;20080;-68
2022/07/24 02:52:38;;;;;;;25.60;20.98;;;;;;;15.61;91.24;101785.66;4985593;28;20023;-68
2022/07/24 02:55:04;;;;;;;24.52;20.35;;;;;;;15.63;91.60;101789.06;4985494;28;20497;-68
2022/07/24 02:57:30;;;;;;;27.65;22.10;;;;;;;15.61;92.21;101783.75;5000803;28;20018;-68
2022/07/24 02:59:55;;;;;;;24.65;21.00;;;;;;;15.61;91.64;101783.75;5002976;28;20022;-68
2022/07/24 03:02:20;;;;;;;25.77;21.02;;;;;;;15.61;91.39;101785.66;5004640;28;20114;-68
2022/07/24 03:04:46;;;;;;;27.20;21.98;;;;;;;15.63;92.15;101777.97;5005185;28;20022;-68
2022/07/24 03:07:12;;;;;;;26.38;21.27;;;;;;;15.61;91.73;101771.81;5004622;28;20144;-68
2022/07/24 03:09:37;;;;;;;27.02;22.20;;;;;;;15.62;91.74;101779.91;4999635;28;20118;-68
2022/07/24 03:12:02;;;;;;;28.17;22.05;;;;;;;15.65;91.39;101784.97;4985173;28;20557;-68
2022/07/24 03:14:27;;;;;;;26.95;22.45;;;;;;;15.65;92.09;101784.13;4984679;28;20027;-68
2022/07/24 03:16:53;;;;;;;25.35;20.55;;;;;;;15.66;91.96;101780.28;4985319;28;20076;-67
2022/07/24 03:19:18;;;;;;;26.87;22.60;;;;;;;15.69;92.05;101777.88;4988718;28;20101;-68
2022/07/24 03:21:43;;;;;;;24.65;21.38;;;;;;;15.67;91.84;101776.44;4985001;28;20311;-68
2022/07/24 03:24:08;;;;;;;24.75;20.55;;;;;;;15.69;91.16;101780.66;4990074;28;20058;-68
2022/07/24 03:26:34;;;;;;;28.17;20.47;;;;;;;15.60;91.19;101775.69;5004848;28;20191;-68
2022/07/24 03:28:59;;;;;;;25.92;20.38;;;;;;;15.54;91.50;101767.25;5002889;28;20280;-68
2022/07/24 03:31:24;;;;;;;25.60;21.25;;;;;;;15.46;90.68;101767.63;5004684;28;20076;-68
2022/07/24 03:33:50;;;;;;;25.08;20.98;;;;;;;15.37;91.05;101771.84;4999478;28;20101;-68
2022/07/24 03:36:15;;;;;;;26.92;21.20;;;;;;;15.32;91.69;101774.50;4985665;28;20053;-68
2022/07/24 03:38:40;;;;;;;26.08;21.58;;;;;;;15.31;92.41;101778.34;4985225;28;20481;-69
2022/07/24 03:41:05;;;;;;;28.27;22.13;;;;;;;15.29;92.83;101769.41;4999061;28;20030;-68
2022/07/24 03:43:31;;;;;;;27.42;22.10;;;;;;;15.31;92.99;101773.66;5003670;28;20026;-68
2022/07/24 03:45:56;;;;;;;27.92;22.33;;;;;;;15.32;92.78;101775.31;5004280;28;20393;-68
2022/07/24 03:48:21;;;;;;;28.30;23.35;;;;;;;15.38;93.27;101778.22;5004540;28;20037;-68
2022/07/24 03:50:46;;;;;;;32.45;25.63;;;;;;;15.49;92.66;101769.06;4988869;28;20660;-68
2022/07/24 03:53:12;;;;;;;29.45;21.95;;;;;;;15.45;93.43;101762.31;4984658;28;20051;-68
2022/07/24 03:55:37;;;;;;;26.85;21.15;;;;;;;15.47;93.44;101769.31;4988114;28;20049;-68
2022/07/24 03:58:02;;;;;;;24.40;20.48;;;;;;;15.45;93.35;101765.94;5003322;28;20413;-68
2022/07/24 04:00:28;;;;;;;28.90;22.10;;;;;;;15.43;93.14;101765.34;5002813;28;20030;-68
2022/07/24 04:02:53;;;;;;;29.05;20.20;;;;;;;15.41;93.30;101766.66;5002758;28;20072;-68
2022/07/24 04:05:18;;;;;;;25.25;19.65;;;;;;;15.41;92.93;101761.97;5004168;28;20025;-68
2022/07/24 04:07:43;;;;;;;27.70;21.42;;;;;;;15.39;92.33;101764.13;5004175;28;20081;-68
2022/07/24 04:10:09;;;;;;;29.50;21.73;;;;;;;15.35;92.65;101768.47;5002187;28;20057;-68
2022/07/24 04:12:34;;;;;;;28.00;22.23;;;;;;;15.37;nan;101766.31;5003749;28;20392;-68
2022/07/24 04:15:00;;;;;;;30.02;23.05;;;;;;;15.37;93.17;101771.84;5003684;28;20030;-68
2022/07/24 04:17:25;;;;;;;35.47;25.40;;;;;;;15.40;93.10;101760.28;5004219;28;20435;-68
2022/07/24 04:19:50;;;;;;;25.90;20.33;;;;;;;15.34;92.63;101755.69;5002160;28;20073;-67
2022/07/24 04:22:16;;;;;;;26.40;20.88;;;;;;;15.32;92.93;101757.88;5006721;28;20423;-68
2022/07/24 04:24:41;;;;;;;25.38;20.83;;;;;;;15.29;92.87;101761.97;5007989;28;20026;-68
2022/07/24 04:27:06;;;;;;;29.85;21.75;;;;;;;15.36;93.52;101769.28;5007718;28;20204;-68
2022/07/24 04:29:32;;;;;;;32.05;24.83;;;;;;;15.42;93.43;101774.72;5006437;28;20042;-68
2022/07/24 04:31:57;;;;;;;32.17;24.40;;;;;;;15.45;93.18;101773.41;4988639;28;20053;-68
2022/07/24 04:34:22;;;;;;;31.48;24.63;;;;;;;15.48;93.43;101771.00;5000719;28;20384;-68
2022/07/24 04:36:47;;;;;;;33.78;25.35;;;;;;;15.51;93.88;101776.06;5008746;28;20030;-68
2022/07/24 04:39:13;;;;;;;31.83;24.38;;;;;;;15.54;93.61;101774.72;5006156;28;20118;-67
2022/07/24 04:41:39;;;;;;;33.67;26.63;;;;;;;15.59;93.54;101783.16;5007528;28;20018;-68
2022/07/24 04:44:04;;;;;;;37.42;29.10;;;;;;;15.60;94.04;101776.53;5006383;28;20022;-68
2022/07/24 04:46:30;;;;;;;44.28;32.38;;;;;;;15.71;93.80;101783.16;5007945;28;20030;-69
2022/07/24 04:48:55;;;;;;;46.95;36.60;;;;;;;15.77;94.00;101788.59;5002745;28;20512;-67
2022/07/24 04:51:20;;;;;;;46.75;35.50;;;;;;;15.80;94.29;101784.50;5007532;28;20017;-67
2022/07/24 04:53:46;;;;;;;50.55;38.08;;;;;;;15.88;94.19;101789.66;5007891;28;20076;-68
2022/07/24 04:56:11;;;;;;;50.55;37.67;;;;;;;15.92;94.17;101779.78;5007680;28;20087;-68
2022/07/24 04:58:37;;;;;;;50.35;37.80;;;;;;;16.02;93.86;101773.63;4999899;28;20375;-68
2022/07/24 05:01:02;;;;;;;58.33;40.65;;;;;;;16.08;93.13;101779.03;4987214;28;20113;-68
2022/07/24 05:03:27;;;;;;;55.85;39.47;;;;;;;16.13;93.26;101783.00;4992572;28;20110;-68
2022/07/24 05:05:53;;;;;;;55.25;39.55;;;;;;;16.19;93.00;101777.31;5007362;28;20025;-68
2022/07/24 05:08:18;;;;;;;53.72;40.03;;;;;;;16.21;92.81;101775.13;5005004;28;20077;-68
2022/07/24 05:10:43;;;;;;;60.40;40.75;;;;;;;16.26;93.20;101763.28;5005033;28;20017;-68
2022/07/24 05:13:09;;;;;;;58.63;40.75;;;;;;;16.30;92.93;101764.50;5005541;28;20029;-68
2022/07/24 05:15:34;;;;;;;60.72;42.28;;;;;;;16.34;92.65;101762.91;5007307;28;20042;-68
2022/07/24 05:17:59;;;;;;;59.72;42.47;;;;;;;16.38;92.45;101771.59;5003554;28;20039;-68
2022/07/24 05:20:24;;;;;;;59.33;41.03;;;;;;;16.41;92.85;101766.38;4996489;28;20158;-68
2022/07/24 05:22:50;;;;;;;62.67;44.42;;;;;;;16.47;92.23;101764.53;5007157;28;20037;-68
2022/07/24 05:25:15;;;;;;;64.60;47.10;;;;;;;16.51;92.16;101777.66;5003600;28;20034;-69
2022/07/24 05:27:40;;;;;;;65.32;45.70;;;;;;;16.55;92.01;101776.09;4986152;28;20683;-68
2022/07/24 05:30:07;;;;;;;64.25;45.60;;;;;;;16.59;92.09;101780.06;4989253;28;20046;-68
2022/07/24 05:32:32;;;;;;;66.00;46.95;;;;;;;16.60;92.40;101778.94;5004245;28;20038;-68
2022/07/24 05:34:57;;;;;;;70.05;46.17;;;;;;;16.67;92.30;101789.06;5004862;28;20497;-68
2022/07/24 05:37:23;;;;;;;66.75;46.25;;;;;;;16.68;92.72;101783.28;5001331;28;20064;-68
2022/07/24 05:39:48;;;;;;;67.38;48.35;;;;;;;16.77;92.68;101786.50;4987429;28;20038;-68
2022/07/24 05:42:13;;;;;;;72.28;50.22;;;;;;;16.82;92.42;101795.75;4986810;28;20042;-68
2022/07/24 05:44:39;;;;;;;70.45;48.22;;;;;;;16.88;92.42;101790.28;4986039;28;20093;-68
2022/07/24 05:47:04;;;;;;;72.32;48.53;;;;;;;16.94;92.04;101795.72;4990045;28;20370;-68
2022/07/24 05:49:30;;;;;;;74.25;49.45;;;;;;;17.01;91.74;101788.06;5006527;28;20034;-68
2022/07/24 05:51:55;;;;;;;69.70;49.17;;;;;;;17.06;91.50;101784.53;5005588;28;20033;-68
2022/07/24 05:54:20;;;;;;;77.60;49.67;;;;;;;17.14;91.71;101788.84;5006250;28;20132;-68
2022/07/24 05:56:46;;;;;;;68.90;49.45;;;;;;;17.21;91.55;101793.13;4994635;28;20062;-68
2022/07/24 05:59:11;;;;;;;75.05;50.20;;;;;;;17.29;91.10;101794.66;4985475;28;20044;-68
2022/07/24 06:01:36;;;;;;;76.82;51.03;;;;;;;17.33;91.50;101793.88;4997349;28;20084;-68
2022/07/24 06:04:02;;;;;;;77.70;50.92;;;;;;;17.41;90.42;101795.38;4989302;28;20030;-68
2022/07/24 06:06:27;;;;;;;79.13;51.08;;;;;;;17.48;90.34;101790.50;4993494;28;20503;-68
2022/07/24 06:08:52;;;;;;;81.88;51.60;;;;;;;17.54;90.14;101797.00;4998374;28;20042;-68
2022/07/24 06:11:18;;;;;;;72.22;49.38;;;;;;;17.64;88.51;101798.00;4987105;28;20497;-68
2022/07/24 06:13:43;;;;;;;77.63;49.85;;;;;;;17.68;89.19;101808.56;4996931;28;20473;-68
2022/07/24 06:16:09;;;;;;;75.22;49.65;;;;;;;17.73;87.68;101797.56;4986300;28;20034;-68
2022/07/24 06:18:34;;;;;;;79.20;51.40;;;;;;;17.81;87.56;101797.13;4994713;28;20543;-68
2022/07/24 06:20:59;;;;;;;71.32;47.45;;;;;;;17.89;86.95;101799.47;5001158;28;20077;-68
2022/07/24 06:23:25;;;;;;;70.95;48.22;;;;;;;17.94;86.60;101796.75;4997879;28;20672;-68
2022/07/24 06:25:50;;;;;;;70.78;46.00;;;;;;;17.99;86.69;101802.38;5002882;28;20034;-67
2022/07/24 06:28:15;;;;;;;68.90;44.83;;;;;;;18.02;85.16;101799.09;5001827;28;20030;-68
2022/07/24 06:30:41;;;;;;;65.72;45.20;;;;;;;18.08;85.66;101795.28;5001676;28;20034;-68
2022/07/24 06:33:06;;;;;;;63.38;43.92;;;;;;;18.13;83.34;101800.91;5000072;28;20406;-67
2022/07/24 06:35:32;;;;;;;68.32;42.45;;;;;;;18.20;83.41;101791.53;5005600;28;20061;-67
2022/07/24 06:37:59;;;;;;;57.60;39.25;;;;;;;18.26;82.39;101799.69;4996704;28;20026;-67
2022/07/24 06:40:24;;;;;;;53.10;37.63;;;;;;;18.36;81.52;101801.78;4986202;28;20035;-67
2022/07/24 06:42:51;;;;;;;53.80;37.72;;;;;;;18.46;80.87;101799.09;4984637;28;20026;-67
2022/07/24 06:45:16;;;;;;;46.10;34.65;;;;;;;18.53;79.08;101804.47;5001361;28;20037;-67
2022/07/24 06:47:42;;;;;;;49.88;34.50;;;;;;;18.60;78.59;101805.94;5003686;28;20392;-67
2022/07/24 06:50:09;;;;;;;47.83;33.38;;;;;;;18.67;78.75;101800.16;5005226;28;20115;-68
2022/07/24 06:52:34;;;;;;;47.58;31.63;;;;;;;18.79;76.82;101795.31;5005058;28;20238;-68
2022/07/24 06:54:59;;;;;;;42.17;28.95;;;;;;;18.85;76.34;101790.63;5000954;28;20565;-68
2022/07/24 06:57:27;;;;;;;42.47;29.45;;;;;;;18.92;76.02;101794.91;4984621;28;20053;-68
2022/07/24 06:59:53;;;;;;;41.28;28.60;;;;;;;18.98;75.40;101787.44;4986562;28;20289;-67
2022/07/24 07:02:20;;;;;;;40.83;27.48;;;;;;;19.07;75.91;101791.41;5005284;28;20426;-67
2022/07/24 07:04:45;;;;;;;34.17;24.77;;;;;;;19.18;72.76;101790.41;5005568;28;20025;-68
2022/07/24 07:07:10;;;;;;;33.90;23.88;;;;;;;19.30;72.63;101783.81;4998435;28;20068;-68
2022/07/24 07:09:36;;;;;;;32.90;24.00;;;;;;;19.38;72.42;101791.69;5002409;28;20152;-68
2022/07/24 07:12:02;;;;;;;32.05;21.05;;;;;;;19.45;70.49;101779.19;4995217;28;20022;-68
2022/07/24 07:14:28;;;;;;;31.35;21.85;;;;;;;19.56;70.54;101784.81;5002412;28;20033;-68
2022/07/24 07:16:53;;;;;;;28.15;20.10;;;;;;;19.65;69.96;101783.25;5004850;28;20033;-67
2022/07/24 07:19:18;;;;;;;26.20;18.40;;;;;;;19.74;67.31;101786.38;4988205;28;20022;-68
2022/07/24 07:21:43;;;;;;;27.77;18.75;;;;;;;19.83;67.64;101795.91;4985276;28;20335;-68
2022/07/24 07:24:09;;;;;;;24.83;18.23;;;;;;;19.90;67.58;101796.50;4998589;28;20025;-67
2022/07/24 07:26:34;;;;;;;28.15;18.25;;;;;;;20.04;68.97;101803.28;4998230;28;20029;-68
2022/07/24 07:28:59;;;;;;;22.40;17.58;;;;;;;20.17;66.77;101790.78;5001656;28;20139;-67
2022/07/24 07:31:26;;;;;;;25.73;16.30;;;;;;;20.34;66.71;101796.16;5004390;28;20034;-67
2022/07/24 07:33:52;;;;;;;22.17;16.30;;;;;;;20.47;65.14;101790.94;4993221;28;20034;-67
2022/07/24 07:36:18;;;;;;;26.05;16.33;;;;;;;20.74;64.67;101798.28;4997448;28;20125;-67
2022/07/24 07:38:43;;;;;;;25.50;16.98;;;;;;;21.10;64.71;101792.75;5000152;28;20112;-68
2022/07/24 07:41:08;;;;;;;21.58;16.10;;;;;;;21.94;61.33;101785.66;4994209;28;20142;-68
2022/07/24 07:43:33;;;;;;;18.27;14.23;;;;;;;22.88;58.16;101781.06;5001587;28;20026;-67
2022/07/24 07:45:59;;;;;;;19.17;14.27;;;;;;;23.07;55.48;101784.03;4994054;28;20085;-67
2022/07/24 07:48:24;;;;;;;18.13;13.10;;;;;;;22.85;55.11;101783.56;5003022;28;20440;-68
2022/07/24 07:50:49;;;;;;;14.73;10.60;;;;;;;22.57;55.85;101793.56;5003885;28;20103;-67
2022/07/24 07:53:15;;;;;;;13.90;10.20;;;;;;;22.58;54.08;101784.88;4997551;28;20030;-68
2022/07/24 07:55:40;;;;;;;14.25;10.40;;;;;;;22.51;55.19;101779.59;4984575;28;20026;-67
2022/07/24 07:58:06;;;;;;;13.50;9.68;;;;;;;22.39;56.29;101783.84;4990539;28;20033;-67
2022/07/24 08:00:32;;;;;;;13.20;9.05;;;;;;;22.29;56.39;101784.72;5003694;28;20053;-68
2022/07/24 08:02:58;;;;;;;12.43;8.30;;;;;;;22.27;56.37;101787.81;5001081;28;20026;-68
2022/07/24 08:05:23;;;;;;;10.20;6.82;;;;;;;22.17;53.89;101771.06;5001195;28;20037;-68
2022/07/24 08:07:49;;;;;;;10.68;6.53;;;;;;;22.10;54.14;101773.31;5002936;28;20057;-68
2022/07/24 08:10:14;;;;;;;11.48;5.63;;;;;;;22.10;53.96;101776.13;5003846;28;20034;-68
2022/07/24 08:12:39;;;;;;;9.38;4.95;;;;;;;22.10;53.86;101778.91;5003373;28;20034;-68
2022/07/24 08:15:06;;;;;;;8.18;4.70;;;;;;;22.08;53.48;101780.31;5004072;28;20026;-68
2022/07/24 08:17:31;;;;;;;9.63;5.35;;;;;;;22.09;53.94;101781.97;5003839;28;20036;-67
2022/07/24 08:19:56;;;;;;;8.05;5.38;;;;;;;22.06;55.04;101788.16;5000040;28;20022;-68
2022/07/24 08:22:21;;;;;;;9.25;5.68;;;;;;;22.12;55.84;101781.47;4988903;28;20030;-67
2022/07/24 08:24:47;;;;;;;10.07;6.50;;;;;;;22.12;55.02;101787.06;5000326;28;20022;-68
2022/07/24 08:27:12;;;;;;;8.13;4.93;;;;;;;22.19;54.39;101776.38;4985674;28;20038;-68
2022/07/24 08:29:37;;;;;;;7.82;4.88;;;;;;;22.27;54.84;101778.59;4986121;28;20315;-67
2022/07/24 08:32:03;;;;;;;6.50;4.47;;;;;;;22.27;55.88;101787.81;4982518;28;20023;-67
2022/07/24 08:34:28;;;;;;;7.20;4.50;;;;;;;22.37;54.48;101788.91;4985210;28;20050;-68
2022/07/24 08:36:54;;;;;;;7.55;4.38;;;;;;;22.38;53.82;101785.81;4997241;28;20127;-68
2022/07/24 08:39:19;;;;;;;6.90;4.60;;;;;;;22.46;54.07;101790.81;4986989;28;20081;-68
2022/07/24 08:41:44;;;;;;;7.30;4.57;;;;;;;22.50;55.18;101785.47;4996161;28;20026;-68
2022/07/24 08:44:10;;;;;;;5.65;3.92;;;;;;;22.55;53.91;101782.63;5001177;28;20424;-68
2022/07/24 08:46:38;;;;;;;6.22;3.70;;;;;;;22.62;54.75;101782.34;4997519;28;20026;-68
2022/07/24 08:49:07;;;;;;;6.67;4.30;;;;;;;22.72;55.36;101769.09;5003600;28;20034;-67
2022/07/24 08:51:35;;;;;;;8.93;4.90;;;;;;;22.75;53.80;101771.31;5003767;28;20182;-68
2022/07/24 08:54:02;;;;;;;6.07;3.77;;;;;;;22.82;54.03;101771.00;4997950;28;20061;-68
2022/07/24 08:56:27;;;;;;;7.90;4.20;;;;;;;22.87;53.39;101762.56;4989611;28;20034;-73
2022/07/24 08:58:53;;;;;;;7.70;4.00;;;;;;;22.99;54.13;101774.25;5000554;28;20489;-69
2022/07/24 09:01:18;;;;;;;8.70;4.20;;;;;;;23.08;53.42;101776.44;4991310;28;20033;-69
2022/07/24 09:03:45;;;;;;;6.60;3.77;;;;;;;23.13;52.86;101780.03;4985798;28;20360;-69
2022/07/24 09:06:12;;;;;;;8.32;4.28;;;;;;;23.16;53.49;101785.03;4993034;28;20298;-69
2022/07/24 09:08:39;;;;;;;7.10;4.13;;;;;;;23.23;55.93;101788.38;5004002;28;20069;-69
2022/07/24 09:11:05;;;;;;;10.10;4.03;;;;;;;23.28;53.80;101777.09;5003589;28;20026;-69
2022/07/24 09:16:22;;;;;;;8.38;4.38;;;;;;;23.48;53.34;101773.28;5006404;28;20049;-69
2022/07/24 09:19:01;;;;;;;6.43;3.90;;;;;;;23.59;52.87;101765.59;5002879;28;20028;-69
2022/07/24 09:21:27;;;;;;;6.72;4.30;;;;;;;23.75;54.51;101764.31;4987360;28;20068;-65
2022/07/24 09:23:52;;;;;;;7.07;4.20;;;;;;;23.85;51.63;101752.16;4991984;28;20440;-69
2022/07/24 09:26:17;;;;;;;7.55;4.25;;;;;;;24.09;52.85;101757.78;4992611;28;20057;-67
2022/07/24 09:28:51;;;;;;;7.15;4.10;;;;;;;24.59;53.61;101759.09;4997627;28;20022;-67
2022/07/24 09:31:17;;;;;;;7.25;4.30;;;;;;;25.49;49.37;101756.22;4994967;28;20030;-68
2022/07/24 09:33:42;;;;;;;6.05;3.83;;;;;;;26.44;45.96;101750.97;5003551;28;20041;-67
2022/07/24 09:36:16;;;;;;;6.85;4.20;;;;;;;26.48;46.50;101744.38;4988933;28;20053;-67
2022/07/24 09:38:51;;;;;;;6.32;4.10;;;;;;;27.14;44.98;101740.00;4993364;28;20038;-67
2022/07/24 09:41:23;;;;;;;7.38;3.90;;;;;;;27.96;43.37;101743.41;4992177;28;20089;-67
2022/07/24 09:44:00;;;;;;;5.35;3.72;;;;;;;28.27;44.44;101749.00;4994660;28;20084;-67
2022/07/24 09:46:26;;;;;;;4.85;3.50;;;;;;;29.53;39.95;101747.16;4991674;28;20027;-67
2022/07/24 09:48:59;;;;;;;6.15;3.85;;;;;;;30.72;38.85;101738.41;5006618;28;20080;-68
2022/07/24 09:51:26;;;;;;;6.32;3.75;;;;;;;31.72;34.93;101753.41;5003157;28;20788;-67
2022/07/24 09:53:58;;;;;;;6.05;3.55;;;;;;;32.80;34.19;101743.56;4998621;28;20429;-68
2022/07/24 09:56:24;;;;;;;6.50;3.58;;;;;;;33.92;30.89;101740.56;5000239;28;20038;-65
2022/07/24 09:58:55;;;;;;;5.55;3.42;;;;;;;34.23;31.36;101736.88;5006654;28;20499;-65
2022/07/24 10:01:23;;;;;;;5.72;3.08;;;;;;;35.22;28.65;101734.56;5005817;28;20034;-66
2022/07/24 10:03:50;;;;;;;5.50;3.40;;;;;;;35.23;28.65;101739.09;4995104;28;20034;-64
2022/07/24 10:06:18;;;;;;;4.70;2.97;;;;;;;35.30;29.83;101729.81;5000988;28;20064;-65
2022/07/24 10:08:46;;;;;;;6.25;3.67;;;;;;;35.59;27.81;101722.63;4987547;28;20034;-65
2022/07/24 10:11:12;;;;;;;4.78;3.30;;;;;;;35.80;27.96;101725.84;4999889;28;20174;-65
2022/07/24 10:13:39;;;;;;;5.88;3.40;;;;;;;35.54;27.28;101728.66;5000756;28;20034;-64
2022/07/24 10:16:13;;;;;;;5.70;3.20;;;;;;;35.66;27.96;101719.06;4987643;28;20034;-65
2022/07/24 10:18:59;;;;;;;4.88;3.08;;;;;;;35.97;29.27;101715.13;4987153;28;20030;-65
2022/07/24 10:21:29;;;;;;;6.07;3.83;;;;;;;36.47;27.36;101699.56;5000420;28;20091;-65
2022/07/24 10:24:04;;;;;;;5.13;3.00;;;;;;;36.75;27.41;101715.44;5004391;28;20484;-66
2022/07/24 10:26:41;;;;;;;5.57;3.08;;;;;;;36.79;26.61;101708.53;4999175;28;20120;-65
2022/07/24 10:29:13;;;;;;;5.45;3.13;;;;;;;36.88;25.48;101711.94;5002415;28;20026;-64
2022/07/24 10:31:47;;;;;;;4.85;2.72;;;;;;;37.02;26.16;101708.44;4998311;28;20653;-65
2022/07/24 10:34:29;;;;;;;5.30;2.83;;;;;;;37.26;26.48;101704.22;5000836;28;20160;-65
2022/07/24 10:37:09;;;;;;;6.38;2.78;;;;;;;37.59;26.55;101697.56;5004774;28;20022;-66
2022/07/24 10:39:45;;;;;;;5.07;3.00;;;;;;;37.61;25.66;101706.63;4997601;28;20491;-66
2022/07/24 10:42:11;;;;;;;5.17;3.23;;;;;;;37.64;25.54;101713.59;4989678;28;20034;-66
2022/07/24 10:44:36;;;;;;;5.90;2.90;;;;;;;38.21;23.92;101701.75;5006444;28;20056;-65
2022/07/24 10:47:13;;;;;;;5.00;2.78;;;;;;;37.38;25.89;101703.94;5005345;28;20069;-65
2022/07/24 10:49:44;;;;;;;3.88;2.70;;;;;;;37.41;24.93;101696.59;5005165;28;20029;-65
2022/07/24 10:52:29;;;;;;;4.45;2.78;;;;;;;37.37;27.12;101702.31;5004902;28;20523;-65
2022/07/24 10:55:20;;;;;;;5.32;3.20;;;;;;;37.01;27.88;101700.25;5005810;28;20072;-66
2022/07/24 10:58:05;;;;;;;4.88;2.80;;;;;;;35.75;26.95;101691.06;4999307;28;20481;-65
2022/07/24 11:00:34;;;;;;;6.55;3.05;;;;;;;34.14;29.34;101686.94;5004093;28;20103;-65
2022/07/24 11:03:05;;;;;;;4.32;2.83;;;;;;;32.87;31.32;101686.84;5005869;28;20436;-65
2022/07/24 11:05:31;;;;;;;4.75;2.80;;;;;;;31.85;32.78;101688.97;4994128;28;20027;-65
2022/07/24 11:08:15;;;;;;;5.88;2.90;;;;;;;31.13;35.66;101688.47;4986970;28;20104;-65
2022/07/24 11:11:05;;;;;;;7.57;2.67;;;;;;;30.66;36.44;101679.38;4997521;28;20267;-65
2022/07/24 11:13:33;;;;;;;5.55;3.42;;;;;;;30.14;38.00;101679.78;5008394;28;20042;-65